createdAt,value
2018-06-09T00:00:36.543Z,20.38
2018-06-09T00:01:36.489Z,20.38
2018-06-09T00:02:36.406Z,20.44
2018-06-09T00:03:36.281Z,20.41
2018-06-09T00:04:36.197Z,20.38
2018-06-09T00:05:36.113Z,20.46
2018-06-09T00:06:36.058Z,20.44
2018-06-09T00:07:35.934Z,20.57
2018-06-09T00:08:35.848Z,20.58
2018-06-09T00:09:35.765Z,20.53
2018-06-09T00:10:35.677Z,20.51
2018-06-09T00:11:35.619Z,20.53
2018-06-09T00:12:35.504Z,20.42
2018-06-09T00:13:35.416Z,20.46
2018-06-09T00:14:35.330Z,20.54
2018-06-09T00:15:35.244Z,20.46
2018-06-09T00:16:35.190Z,20.41
2018-06-09T00:17:35.071Z,20.53
2018-06-09T00:18:34.983Z,20.44
2018-06-09T00:19:34.928Z,20.42
2018-06-09T00:20:34.811Z,20.42
2018-06-09T00:21:34.852Z,20.46
2018-06-09T00:22:34.638Z,20.34
2018-06-09T00:23:34.550Z,20.38
2018-06-09T00:24:34.465Z,20.38
2018-06-09T00:25:34.383Z,20.42
2018-06-09T00:26:34.319Z,20.44
2018-06-09T00:27:34.204Z,20.41
2018-06-09T00:28:34.117Z,20.42
2018-06-09T00:29:34.031Z,20.35
2018-06-09T00:30:33.943Z,20.38
2018-06-09T00:31:33.886Z,20.38
2018-06-09T00:32:33.771Z,20.40
2018-06-09T00:33:33.685Z,20.41
2018-06-09T00:34:33.611Z,20.38
2018-06-09T00:35:33.621Z,20.34
2018-06-09T00:36:33.454Z,20.37
2018-06-09T00:37:33.334Z,20.41
2018-06-09T00:38:33.252Z,20.41
2018-06-09T00:39:33.163Z,20.44
2018-06-09T00:40:33.077Z,20.37
2018-06-09T00:41:32.996Z,20.22
2018-06-09T00:42:33.036Z,20.27
2018-06-09T00:43:32.816Z,20.38
2018-06-09T00:44:32.729Z,20.20
2018-06-09T00:45:32.646Z,20.25
2018-06-09T00:46:32.561Z,20.26
2018-06-09T00:47:32.501Z,20.20
2018-06-09T00:48:32.384Z,20.17
2018-06-09T00:49:32.394Z,20.20
2018-06-09T00:50:32.210Z,20.17
2018-06-09T00:51:32.125Z,20.13
2018-06-09T00:52:32.070Z,20.07
2018-06-09T00:53:31.950Z,19.92
2018-06-09T00:54:31.863Z,19.97
2018-06-09T00:55:31.778Z,19.97
2018-06-09T00:56:31.810Z,20.00
2018-06-09T00:57:31.636Z,20.00
2018-06-09T00:58:31.519Z,20.02
2018-06-09T00:59:31.430Z,20.04
2018-06-09T01:00:31.345Z,19.92
2018-06-09T01:01:31.260Z,19.90
2018-06-09T01:02:31.201Z,19.87
2018-06-09T01:03:31.181Z,19.92
2018-06-09T01:04:30.996Z,19.95
2018-06-09T01:05:30.912Z,19.94
2018-06-09T01:06:30.821Z,19.92
2018-06-09T01:07:30.765Z,19.89
2018-06-09T01:08:30.648Z,20.04
2018-06-09T01:09:30.563Z,19.92
2018-06-09T01:10:30.575Z,19.92
2018-06-09T01:11:30.389Z,19.92
2018-06-09T01:12:30.332Z,19.97
2018-06-09T01:13:30.212Z,20.00
2018-06-09T01:14:30.130Z,20.02
2018-06-09T01:15:30.040Z,19.98
2018-06-09T01:16:29.955Z,19.97
2018-06-09T01:17:29.972Z,19.90
2018-06-09T01:18:29.783Z,19.92
2018-06-09T01:19:29.693Z,19.98
2018-06-09T01:20:29.608Z,19.89
2018-06-09T01:21:29.523Z,19.94
2018-06-09T01:22:29.464Z,19.92
2018-06-09T01:23:29.346Z,19.94
2018-06-09T01:24:29.354Z,19.87
2018-06-09T01:25:29.172Z,19.82
2018-06-09T01:26:29.086Z,19.86
2018-06-09T01:27:29.031Z,19.83
2018-06-09T01:28:28.913Z,19.79
2018-06-09T01:29:28.828Z,19.75
2018-06-09T01:30:28.739Z,19.71
2018-06-09T01:31:28.650Z,19.71
2018-06-09T01:32:28.597Z,19.65
2018-06-09T01:33:28.475Z,19.64
2018-06-09T01:34:28.389Z,19.75
2018-06-09T01:35:28.302Z,19.72
2018-06-09T01:36:28.217Z,19.57
2018-06-09T01:37:28.159Z,19.68
2018-06-09T01:38:28.041Z,19.67
2018-06-09T01:39:27.954Z,19.57
2018-06-09T01:40:27.868Z,19.58
2018-06-09T01:41:27.783Z,19.57
2018-06-09T01:42:27.724Z,19.62
2018-06-09T01:43:27.605Z,19.58
2018-06-09T01:44:27.520Z,19.55
2018-06-09T01:45:27.435Z,19.60
2018-06-09T01:46:27.346Z,19.49
2018-06-09T01:47:27.288Z,19.55
2018-06-09T01:48:27.173Z,19.58
2018-06-09T01:49:27.088Z,19.52
2018-06-09T01:50:26.998Z,19.55
2018-06-09T01:51:26.910Z,19.61
2018-06-09T01:52:26.853Z,19.70
2018-06-09T01:53:26.736Z,19.64
2018-06-09T01:54:26.653Z,19.62
2018-06-09T01:55:26.563Z,19.60
2018-06-09T01:56:26.473Z,19.64
2018-06-09T01:57:26.421Z,19.64
2018-06-09T01:58:26.303Z,19.79
2018-06-09T01:59:26.216Z,19.70
2018-06-09T02:00:26.126Z,19.72
2018-06-09T02:01:26.040Z,19.67
2018-06-09T02:02:25.983Z,19.75
2018-06-09T02:03:25.868Z,19.83
2018-06-09T02:04:25.779Z,19.85
2018-06-09T02:05:25.691Z,19.79
2018-06-09T02:06:25.603Z,19.83
2018-06-09T02:07:25.550Z,19.86
2018-06-09T02:08:25.432Z,19.85
2018-06-09T02:09:25.343Z,19.80
2018-06-09T02:10:25.255Z,19.86
2018-06-09T02:11:25.182Z,19.85
2018-06-09T02:12:25.086Z,19.92
2018-06-09T02:13:25.026Z,20.04
2018-06-09T02:14:24.908Z,19.90
2018-06-09T02:15:24.822Z,19.94
2018-06-09T02:16:24.733Z,19.90
2018-06-09T02:17:24.649Z,20.05
2018-06-09T02:18:24.598Z,20.00
2018-06-09T02:19:24.473Z,19.90
2018-06-09T02:20:24.387Z,20.05
2018-06-09T02:21:24.297Z,19.94
2018-06-09T02:22:24.216Z,19.92
2018-06-09T02:23:24.158Z,19.80
2018-06-09T02:24:24.037Z,19.92
2018-06-09T02:25:23.954Z,19.87
2018-06-09T02:26:23.868Z,19.95
2018-06-09T02:27:23.780Z,19.90
2018-06-09T02:28:23.720Z,20.07
2018-06-09T02:29:23.602Z,20.08
2018-06-09T02:30:23.520Z,20.04
2018-06-09T02:31:23.428Z,20.01
2018-06-09T02:32:23.344Z,19.94
2018-06-09T02:33:23.287Z,19.94
2018-06-09T02:34:23.171Z,19.89
2018-06-09T02:35:23.086Z,19.86
2018-06-09T02:36:22.995Z,19.86
2018-06-09T02:37:22.911Z,19.83
2018-06-09T02:38:22.856Z,19.71
2018-06-09T02:39:22.733Z,19.68
2018-06-09T02:40:22.649Z,19.72
2018-06-09T02:41:22.560Z,19.62
2018-06-09T02:42:22.476Z,19.61
2018-06-09T02:43:22.420Z,19.55
2018-06-09T02:44:22.309Z,19.55
2018-06-09T02:45:22.216Z,19.58
2018-06-09T02:46:22.127Z,19.60
2018-06-09T02:47:22.039Z,19.71
2018-06-09T02:48:21.984Z,19.70
2018-06-09T02:49:21.865Z,19.64
2018-06-09T02:50:21.777Z,19.67
2018-06-09T02:51:21.690Z,19.58
2018-06-09T02:52:21.604Z,19.52
2018-06-09T02:53:21.551Z,19.47
2018-06-09T02:54:21.528Z,19.47
2018-06-09T02:55:21.344Z,19.57
2018-06-09T02:56:21.254Z,19.42
2018-06-09T02:57:21.168Z,19.32
2018-06-09T02:58:21.112Z,19.43
2018-06-09T02:59:20.993Z,19.31
2018-06-09T03:00:20.907Z,19.28
2018-06-09T03:01:20.824Z,19.21
2018-06-09T03:02:20.734Z,18.94
2018-06-09T03:03:20.678Z,18.76
2018-06-09T03:04:20.563Z,18.69
2018-06-09T03:05:20.475Z,18.53
2018-06-09T03:06:20.389Z,18.57
2018-06-09T03:07:20.300Z,18.47
2018-06-09T03:08:20.336Z,18.29
2018-06-09T03:09:20.125Z,18.32
2018-06-09T03:10:20.040Z,18.17
2018-06-09T03:11:19.952Z,18.14
2018-06-09T03:12:19.863Z,18.14
2018-06-09T03:13:19.807Z,17.99
2018-06-09T03:14:19.690Z,18.07
2018-06-09T03:15:19.695Z,17.91
2018-06-09T03:16:19.517Z,17.81
2018-06-09T03:17:19.430Z,17.77
2018-06-09T03:18:19.372Z,17.71
2018-06-09T03:19:19.259Z,17.65
2018-06-09T03:20:19.167Z,17.53
2018-06-09T03:21:19.080Z,17.46
2018-06-09T03:22:19.085Z,17.43
2018-06-09T03:23:18.935Z,17.40
2018-06-09T03:24:18.817Z,17.35
2018-06-09T03:25:18.729Z,17.33
2018-06-09T03:26:18.643Z,17.33
2018-06-09T03:27:18.569Z,17.22
2018-06-09T03:28:18.495Z,17.20
2018-06-09T03:29:18.474Z,17.24
2018-06-09T03:30:18.298Z,17.20
2018-06-09T03:31:18.205Z,17.05
2018-06-09T03:32:18.120Z,16.99
2018-06-09T03:33:18.062Z,16.92
2018-06-09T03:34:17.948Z,16.84
2018-06-09T03:35:17.858Z,16.91
2018-06-09T03:36:17.769Z,16.85
2018-06-09T03:37:17.686Z,16.84
2018-06-09T03:38:17.628Z,16.82
2018-06-09T03:39:17.507Z,16.80
2018-06-09T03:40:17.420Z,16.88
2018-06-09T03:41:17.330Z,16.78
2018-06-09T03:42:17.244Z,16.80
2018-06-09T03:43:17.229Z,16.69
2018-06-09T03:44:17.098Z,16.81
2018-06-09T03:45:16.981Z,16.75
2018-06-09T03:46:16.893Z,16.72
2018-06-09T03:47:16.804Z,16.69
2018-06-09T03:48:16.719Z,16.69
2018-06-09T03:49:16.660Z,16.63
2018-06-09T03:50:16.542Z,16.77
2018-06-09T03:51:16.551Z,16.82
2018-06-09T03:52:16.368Z,16.81
2018-06-09T03:53:16.284Z,16.82
2018-06-09T03:54:16.224Z,16.81
2018-06-09T03:55:16.102Z,16.82
2018-06-09T03:56:16.020Z,16.84
2018-06-09T03:57:15.930Z,16.85
2018-06-09T03:58:15.946Z,16.87
2018-06-09T03:59:15.784Z,16.90
2018-06-09T04:00:15.665Z,16.87
2018-06-09T04:01:15.576Z,16.88
2018-06-09T04:02:15.491Z,16.90
2018-06-09T04:03:15.402Z,16.95
2018-06-09T04:04:15.345Z,16.95
2018-06-09T04:05:15.321Z,16.90
2018-06-09T04:06:15.141Z,16.91
2018-06-09T04:07:15.052Z,17.02
2018-06-09T04:08:14.965Z,17.02
2018-06-09T04:09:14.911Z,17.20
2018-06-09T04:10:14.789Z,17.28
2018-06-09T04:11:14.699Z,17.18
2018-06-09T04:12:14.708Z,17.33
2018-06-09T04:13:14.525Z,17.25
2018-06-09T04:14:14.473Z,17.39
2018-06-09T04:15:14.350Z,17.46
2018-06-09T04:16:14.261Z,17.51
2018-06-09T04:17:14.175Z,17.47
2018-06-09T04:18:14.093Z,17.58
2018-06-09T04:19:14.122Z,17.63
2018-06-09T04:20:13.910Z,17.74
2018-06-09T04:21:13.840Z,17.70
2018-06-09T04:22:13.739Z,17.77
2018-06-09T04:23:13.653Z,17.81
2018-06-09T04:24:13.593Z,17.80
2018-06-09T04:25:13.473Z,17.81
2018-06-09T04:26:13.482Z,17.87
2018-06-09T04:27:13.299Z,17.84
2018-06-09T04:28:13.212Z,17.81
2018-06-09T04:29:13.160Z,17.91
2018-06-09T04:30:13.038Z,17.91
2018-06-09T04:31:12.950Z,17.92
2018-06-09T04:32:12.882Z,17.98
2018-06-09T04:33:12.775Z,18.05
2018-06-09T04:34:12.716Z,18.05
2018-06-09T04:35:12.600Z,18.10
2018-06-09T04:36:12.514Z,18.10
2018-06-09T04:37:12.427Z,18.14
2018-06-09T04:38:12.340Z,18.23
2018-06-09T04:39:12.283Z,18.29
2018-06-09T04:40:12.164Z,18.32
2018-06-09T04:41:12.081Z,18.42
2018-06-09T04:42:11.990Z,18.59
2018-06-09T04:43:11.904Z,18.64
2018-06-09T04:44:11.845Z,18.65
2018-06-09T04:45:11.728Z,18.69
2018-06-09T04:46:11.642Z,18.71
2018-06-09T04:47:11.553Z,18.68
2018-06-09T04:48:11.469Z,18.79
2018-06-09T04:49:11.414Z,18.75
2018-06-09T04:50:11.295Z,18.90
2018-06-09T04:51:11.206Z,18.96
2018-06-09T04:52:11.158Z,18.99
2018-06-09T04:53:11.041Z,19.06
2018-06-09T04:54:10.981Z,19.16
2018-06-09T04:55:10.861Z,19.21
2018-06-09T04:56:10.778Z,19.24
2018-06-09T04:57:10.689Z,19.27
2018-06-09T04:58:10.601Z,19.39
2018-06-09T04:59:10.553Z,19.35
2018-06-09T05:00:10.426Z,19.49
2018-06-09T05:01:10.343Z,19.57
2018-06-09T05:02:10.256Z,19.70
2018-06-09T05:03:10.171Z,19.71
2018-06-09T05:04:10.115Z,19.80
2018-06-09T05:05:10.002Z,19.85
2018-06-09T05:06:09.912Z,19.94
2018-06-09T05:07:09.866Z,19.95
2018-06-09T05:08:09.741Z,19.95
2018-06-09T05:09:09.688Z,20.08
2018-06-09T05:10:09.565Z,20.07
2018-06-09T05:11:09.481Z,20.15
2018-06-09T05:12:09.394Z,20.20
2018-06-09T05:13:09.311Z,20.22
2018-06-09T05:14:09.229Z,20.26
2018-06-09T05:15:09.168Z,20.22
2018-06-09T05:16:09.051Z,20.31
2018-06-09T05:17:08.965Z,20.30
2018-06-09T05:18:08.880Z,20.38
2018-06-09T05:19:08.795Z,20.44
2018-06-09T05:20:08.738Z,20.41
2018-06-09T05:21:08.622Z,20.41
2018-06-09T05:22:08.537Z,20.56
2018-06-09T05:23:08.450Z,20.61
2018-06-09T05:24:08.368Z,20.71
2018-06-09T05:25:08.324Z,20.71
2018-06-09T05:26:08.196Z,20.78
2018-06-09T05:27:08.109Z,20.85
2018-06-09T05:28:08.080Z,21.00
2018-06-09T05:29:07.942Z,21.11
2018-06-09T05:30:07.882Z,21.28
2018-06-09T05:31:07.767Z,21.36
2018-06-09T05:32:07.681Z,21.49
2018-06-09T05:33:07.599Z,21.61
2018-06-09T05:34:07.513Z,21.66
2018-06-09T05:35:07.461Z,21.73
2018-06-09T05:36:07.341Z,21.86
2018-06-09T05:37:07.255Z,21.96
2018-06-09T05:38:07.172Z,22.21
2018-06-09T05:39:07.088Z,22.12
2018-06-09T05:40:07.035Z,22.19
2018-06-09T05:41:06.916Z,22.29
2018-06-09T05:42:06.831Z,22.31
2018-06-09T05:43:06.745Z,22.31
2018-06-09T05:44:06.659Z,22.33
2018-06-09T05:45:06.606Z,22.24
2018-06-09T05:46:06.494Z,22.33
2018-06-09T05:47:06.406Z,22.27
2018-06-09T05:48:06.324Z,22.27
2018-06-09T05:49:06.346Z,22.39
2018-06-09T05:50:06.186Z,22.33
2018-06-09T05:51:06.068Z,22.42
2018-06-09T05:52:05.983Z,22.38
2018-06-09T05:53:05.901Z,22.45
2018-06-09T05:54:05.817Z,22.46
2018-06-09T05:55:05.763Z,22.48
2018-06-09T05:56:05.746Z,22.44
2018-06-09T05:57:05.566Z,22.42
2018-06-09T05:58:05.480Z,22.46
2018-06-09T05:59:05.395Z,22.46
2018-06-09T06:00:05.348Z,22.52
2018-06-09T06:01:05.224Z,22.57
2018-06-09T06:02:05.148Z,22.66
2018-06-09T06:03:05.156Z,22.70
2018-06-09T06:04:04.977Z,22.75
2018-06-09T06:05:04.924Z,22.78
2018-06-09T06:06:04.808Z,22.84
2018-06-09T06:07:04.724Z,22.85
2018-06-09T06:08:04.639Z,22.88
2018-06-09T06:09:04.554Z,22.99
2018-06-09T06:10:04.597Z,23.09
2018-06-09T06:11:04.388Z,23.16
2018-06-09T06:12:04.302Z,23.21
2018-06-09T06:13:04.223Z,23.38
2018-06-09T06:14:04.135Z,23.52
2018-06-09T06:15:04.081Z,23.49
2018-06-09T06:16:03.967Z,23.49
2018-06-09T06:17:03.977Z,23.41
2018-06-09T06:18:03.799Z,23.45
2018-06-09T06:19:03.718Z,23.47
2018-06-09T06:20:03.665Z,23.63
2018-06-09T06:21:03.548Z,23.62
2018-06-09T06:22:03.466Z,23.59
2018-06-09T06:23:03.383Z,23.68
2018-06-09T06:24:03.296Z,23.67
2018-06-09T06:25:03.247Z,23.64
2018-06-09T06:26:03.131Z,23.68
2018-06-09T06:27:03.047Z,23.75
2018-06-09T06:28:02.963Z,23.79
2018-06-09T06:29:02.883Z,23.86
2018-06-09T06:30:02.832Z,23.87
2018-06-09T06:31:02.712Z,23.99
2018-06-09T06:32:02.654Z,24.02
2018-06-09T06:33:02.557Z,24.08
2018-06-09T06:34:02.466Z,24.15
2018-06-09T06:35:02.413Z,24.24
2018-06-09T06:36:02.303Z,24.41
2018-06-09T06:37:02.216Z,24.61
2018-06-09T06:38:02.134Z,24.97
2018-06-09T06:39:02.049Z,25.17
2018-06-09T06:40:02.015Z,25.42
2018-06-09T06:41:01.885Z,25.81
2018-06-09T06:42:01.803Z,25.97
2018-06-09T06:43:01.719Z,26.17
2018-06-09T06:44:01.641Z,26.34
2018-06-09T06:45:01.598Z,26.71
2018-06-09T06:46:01.504Z,26.88
2018-06-09T06:47:01.400Z,26.93
2018-06-09T06:48:01.311Z,27.15
2018-06-09T06:49:01.232Z,27.13
2018-06-09T06:50:01.151Z,27.39
2018-06-09T06:51:01.099Z,27.28
2018-06-09T06:52:00.986Z,27.40
2018-06-09T06:53:00.909Z,27.58
2018-06-09T06:54:00.828Z,27.62
2018-06-09T06:55:00.749Z,27.63
2018-06-09T06:56:00.699Z,27.53
2018-06-09T06:57:00.590Z,27.74
2018-06-09T06:58:00.508Z,27.74
2018-06-09T06:59:00.429Z,27.80
2018-06-09T07:00:00.352Z,28.06
2018-06-09T07:01:00.301Z,28.23
2018-06-09T07:02:00.246Z,28.13
2018-06-09T07:03:00.122Z,28.33
2018-06-09T07:04:00.035Z,28.42
2018-06-09T07:05:00.054Z,28.39
2018-06-09T07:05:59.911Z,28.67
2018-06-09T07:06:59.800Z,28.67
2018-06-09T07:07:59.752Z,28.64
2018-06-09T07:08:59.646Z,29.10
2018-06-09T07:09:59.572Z,29.18
2018-06-09T07:10:59.521Z,29.25
2018-06-09T07:11:59.508Z,29.23
2018-06-09T07:12:59.337Z,29.26
2018-06-09T07:13:59.259Z,29.39
2018-06-09T07:14:59.183Z,29.42
2018-06-09T07:15:59.137Z,29.33
2018-06-09T07:16:59.031Z,29.26
2018-06-09T07:17:58.953Z,29.15
2018-06-09T07:18:58.969Z,29.23
2018-06-09T07:19:58.817Z,29.03
2018-06-09T07:20:58.752Z,29.17
2018-06-09T07:21:58.651Z,29.05
2018-06-09T07:22:58.577Z,28.73
2018-06-09T07:23:58.497Z,28.89
2018-06-09T07:24:58.420Z,28.57
2018-06-09T07:25:58.475Z,28.45
2018-06-09T07:26:58.269Z,28.27
2018-06-09T07:27:58.192Z,27.96
2018-06-09T07:28:58.119Z,28.13
2018-06-09T07:29:58.047Z,28.09
2018-06-09T07:30:57.998Z,27.99
2018-06-09T07:31:57.892Z,27.96
2018-06-09T07:32:57.921Z,27.55
2018-06-09T07:33:57.740Z,27.12
2018-06-09T07:34:57.664Z,26.96
2018-06-09T07:35:57.619Z,26.46
2018-06-09T07:36:57.513Z,26.35
2018-06-09T07:37:57.435Z,26.59
2018-06-09T07:38:57.360Z,26.49
2018-06-09T07:39:57.378Z,26.69
2018-06-09T07:40:57.239Z,27.03
2018-06-09T07:41:57.132Z,27.24
2018-06-09T07:42:57.055Z,27.40
2018-06-09T07:43:56.984Z,27.40
2018-06-09T07:44:56.905Z,27.39
2018-06-09T07:45:56.857Z,27.21
2018-06-09T07:46:56.855Z,27.45
2018-06-09T07:47:56.689Z,27.55
2018-06-09T07:48:56.596Z,28.08
2018-06-09T07:49:56.520Z,28.64
2018-06-09T07:50:56.475Z,29.07
2018-06-09T07:51:56.369Z,28.82
2018-06-09T07:52:56.293Z,28.51
2018-06-09T07:53:56.312Z,28.08
2018-06-09T07:54:56.138Z,28.13
2018-06-09T07:55:56.094Z,27.93
2018-06-09T07:56:55.987Z,28.17
2018-06-09T07:57:55.910Z,28.57
2018-06-09T07:58:55.835Z,28.97
2018-06-09T07:59:55.755Z,29.23
2018-06-09T08:00:55.804Z,29.39
2018-06-09T08:01:55.602Z,29.49
2018-06-09T08:02:55.534Z,29.45
2018-06-09T08:03:55.453Z,29.47
2018-06-09T08:04:55.374Z,29.78
2018-06-09T08:05:55.331Z,29.76
2018-06-09T08:06:55.264Z,29.27
2018-06-09T08:07:55.244Z,29.14
2018-06-09T08:08:55.073Z,29.26
2018-06-09T08:09:54.994Z,28.70
2018-06-09T08:10:54.948Z,29.15
2018-06-09T08:11:54.844Z,29.03
2018-06-09T08:12:54.764Z,28.70
2018-06-09T08:13:54.721Z,28.73
2018-06-09T08:14:54.712Z,28.76
2018-06-09T08:15:54.541Z,28.98
2018-06-09T08:16:54.495Z,28.85
2018-06-09T08:17:54.384Z,28.57
2018-06-09T08:18:54.310Z,28.54
2018-06-09T08:19:54.233Z,28.32
2018-06-09T08:20:54.158Z,28.21
2018-06-09T08:21:54.207Z,27.81
2018-06-09T08:22:54.002Z,27.63
2018-06-09T08:23:53.930Z,27.55
2018-06-09T08:24:53.851Z,27.55
2018-06-09T08:25:53.777Z,27.43
2018-06-09T08:26:53.724Z,27.24
2018-06-09T08:27:53.617Z,27.21
2018-06-09T08:28:53.639Z,27.30
2018-06-09T08:29:53.466Z,27.30
2018-06-09T08:30:53.389Z,27.24
2018-06-09T08:31:53.345Z,27.43
2018-06-09T08:32:53.247Z,27.27
2018-06-09T08:33:53.155Z,27.45
2018-06-09T08:34:53.078Z,27.25
2018-06-09T08:35:54.373Z,27.33
2018-06-09T08:36:52.952Z,27.39
2018-06-09T08:37:52.845Z,27.49
2018-06-09T08:38:52.767Z,27.58
2018-06-09T08:39:52.692Z,27.76
2018-06-09T08:40:52.611Z,27.77
2018-06-09T08:41:52.567Z,27.71
2018-06-09T08:42:52.455Z,27.55
2018-06-09T08:43:52.379Z,27.34
2018-06-09T08:44:52.302Z,27.27
2018-06-09T08:45:52.223Z,27.52
2018-06-09T08:46:52.180Z,27.80
2018-06-09T08:47:52.065Z,28.25
2018-06-09T08:48:52.109Z,28.60
2018-06-09T08:49:51.910Z,28.50
2018-06-09T08:50:51.829Z,28.32
2018-06-09T08:51:51.783Z,28.32
2018-06-09T08:52:51.678Z,28.17
2018-06-09T08:53:51.597Z,27.98
2018-06-09T08:54:51.519Z,27.95
2018-06-09T08:55:51.557Z,27.66
2018-06-09T08:56:51.422Z,27.62
2018-06-09T08:57:51.287Z,27.69
2018-06-09T08:58:51.220Z,27.59
2018-06-09T08:59:51.128Z,27.42
2018-06-09T09:00:51.053Z,27.35
2018-06-09T09:01:51.006Z,27.15
2018-06-09T09:02:50.891Z,27.03
2018-06-09T09:03:50.815Z,26.98
2018-06-09T09:04:50.736Z,26.96
2018-06-09T09:05:50.662Z,26.75
2018-06-09T09:06:50.608Z,26.68
2018-06-09T09:07:50.503Z,26.76
2018-06-09T09:08:50.422Z,27.13
2018-06-09T09:09:50.344Z,27.65
2018-06-09T09:10:50.264Z,27.98
2018-06-09T09:11:50.215Z,27.69
2018-06-09T09:12:50.110Z,27.66
2018-06-09T09:13:50.052Z,27.77
2018-06-09T09:14:49.950Z,27.39
2018-06-09T09:15:49.873Z,27.27
2018-06-09T09:16:49.822Z,27.16
2018-06-09T09:17:49.715Z,27.02
2018-06-09T09:18:49.635Z,27.05
2018-06-09T09:19:49.556Z,27.06
2018-06-09T09:20:49.482Z,27.05
2018-06-09T09:21:49.433Z,27.03
2018-06-09T09:22:49.413Z,27.06
2018-06-09T09:23:49.240Z,27.09
2018-06-09T09:24:49.163Z,27.30
2018-06-09T09:25:49.095Z,27.91
2018-06-09T09:26:49.038Z,28.13
2018-06-09T09:27:48.927Z,28.48
2018-06-09T09:28:48.848Z,29.05
2018-06-09T09:29:48.773Z,29.45
2018-06-09T09:30:48.692Z,29.37
2018-06-09T09:31:48.645Z,28.87
2018-06-09T09:32:48.531Z,28.67
2018-06-09T09:33:48.462Z,28.38
2018-06-09T09:34:48.376Z,28.15
2018-06-09T09:35:48.297Z,27.96
2018-06-09T09:36:48.267Z,27.59
2018-06-09T09:37:48.140Z,27.59
2018-06-09T09:38:48.060Z,27.40
2018-06-09T09:39:47.984Z,27.45
2018-06-09T09:40:47.905Z,27.16
2018-06-09T09:41:47.858Z,27.03
2018-06-09T09:42:47.750Z,26.75
2018-06-09T09:43:47.669Z,26.65
2018-06-09T09:44:47.703Z,26.68
2018-06-09T09:45:47.512Z,26.60
2018-06-09T09:46:47.440Z,26.44
2018-06-09T09:47:47.386Z,26.27
2018-06-09T09:48:47.279Z,26.04
2018-06-09T09:49:47.199Z,26.01
2018-06-09T09:50:47.118Z,25.94
2018-06-09T09:51:47.068Z,25.89
2018-06-09T09:52:46.958Z,25.78
2018-06-09T09:53:46.883Z,25.71
2018-06-09T09:54:46.803Z,25.60
2018-06-09T09:55:46.722Z,25.56
2018-06-09T09:56:46.658Z,25.57
2018-06-09T09:57:46.596Z,25.49
2018-06-09T09:58:46.480Z,25.44
2018-06-09T09:59:46.403Z,25.46
2018-06-09T10:00:46.324Z,25.39
2018-06-09T10:01:46.246Z,25.38
2018-06-09T10:02:46.198Z,25.23
2018-06-09T10:03:46.082Z,25.24
2018-06-09T10:04:46.021Z,24.15
2018-06-09T10:05:45.924Z,23.39
2018-06-09T10:06:45.846Z,22.33
2018-06-09T10:07:45.790Z,20.91
2018-06-09T10:08:45.680Z,19.86
2018-06-09T10:09:45.601Z,19.16
2018-06-09T10:10:45.517Z,18.76
2018-06-09T10:11:45.435Z,18.29
2018-06-09T10:12:45.387Z,17.95
2018-06-09T10:13:45.269Z,17.70
2018-06-09T10:14:45.186Z,17.35
2018-06-09T10:15:45.103Z,16.90
2018-06-09T10:16:45.022Z,16.50
2018-06-09T10:17:44.965Z,16.34
2018-06-09T10:18:44.848Z,16.23
2018-06-09T12:52:12.304Z,18.25
2018-06-09T12:53:10.148Z,18.35
2018-06-09T12:54:10.277Z,18.44
2018-06-09T12:55:09.972Z,18.51
2018-06-09T12:56:09.883Z,18.49
2018-06-09T12:57:09.796Z,18.64
2018-06-09T12:58:09.712Z,18.65
2018-06-09T12:59:09.653Z,18.71
2018-06-09T13:00:09.535Z,18.74
2018-06-09T13:01:09.454Z,18.76
2018-06-09T13:02:09.362Z,18.75
2018-06-09T13:03:09.300Z,18.83
2018-06-09T13:04:09.219Z,18.75
2018-06-09T13:05:09.110Z,18.78
2018-06-09T13:06:09.108Z,18.75
2018-06-09T13:07:08.925Z,18.64
2018-06-09T13:08:08.840Z,18.76
2018-06-09T13:09:08.800Z,18.50
2018-06-09T13:10:08.705Z,18.50
2018-06-09T13:11:08.578Z,18.46
2018-06-09T13:12:08.493Z,18.54
2018-06-09T13:13:08.404Z,18.53
2018-06-09T13:14:08.387Z,18.47
2018-06-09T13:15:08.236Z,18.56
2018-06-09T13:16:08.148Z,18.56
2018-06-09T13:17:08.061Z,18.56
2018-06-09T13:18:07.977Z,18.54
2018-06-09T13:19:07.938Z,18.53
2018-06-09T13:20:07.799Z,18.49
2018-06-09T13:21:07.712Z,18.59
2018-06-09T13:22:07.629Z,18.53
2018-06-09T13:23:07.543Z,18.57
2018-06-09T13:24:07.482Z,18.44
2018-06-09T13:25:07.366Z,18.41
2018-06-09T13:26:07.375Z,18.31
2018-06-09T13:27:07.198Z,18.42
2018-06-09T13:28:07.107Z,18.49
2018-06-09T13:29:07.052Z,18.46
2018-06-09T13:30:06.933Z,18.53
2018-06-09T13:31:06.846Z,18.53
2018-06-09T13:32:06.760Z,18.62
2018-06-09T13:33:06.767Z,18.57
2018-06-09T13:34:06.621Z,18.69
2018-06-09T13:35:06.500Z,18.64
2018-06-09T13:36:06.444Z,18.54
2018-06-09T13:37:06.328Z,18.57
2018-06-09T13:38:06.261Z,18.51
2018-06-09T13:39:06.185Z,18.57
2018-06-09T13:40:06.067Z,18.51
2018-06-09T13:41:05.982Z,18.65
2018-06-09T13:42:05.897Z,18.76
2018-06-09T13:43:05.808Z,18.71
2018-06-09T13:44:05.757Z,18.74
2018-06-09T13:45:05.638Z,18.86
2018-06-09T13:46:05.554Z,18.83
2018-06-09T13:47:05.464Z,18.93
2018-06-09T13:48:05.396Z,19.02
2018-06-09T13:49:05.290Z,19.13
2018-06-09T13:50:05.240Z,19.20
2018-06-09T13:51:05.119Z,19.21
2018-06-09T13:52:05.035Z,19.30
2018-06-09T13:53:04.949Z,19.32
2018-06-09T13:54:04.864Z,19.28
2018-06-09T13:55:04.805Z,19.43
2018-06-09T13:56:04.691Z,19.50
2018-06-09T13:57:04.601Z,19.43
2018-06-09T13:58:04.520Z,19.55
2018-06-09T13:59:04.435Z,19.60
2018-06-09T14:00:04.377Z,19.64
2018-06-09T14:01:04.263Z,19.76
2018-06-09T14:02:04.175Z,19.76
2018-06-09T14:03:04.090Z,19.72
2018-06-09T14:04:04.009Z,19.85
2018-06-09T14:05:03.949Z,19.79
2018-06-09T14:06:03.834Z,19.83
2018-06-09T14:07:03.747Z,19.97
2018-06-09T14:08:03.660Z,20.00
2018-06-09T14:09:03.578Z,20.16
2018-06-09T14:10:03.527Z,20.20
2018-06-09T14:11:03.410Z,20.19
2018-06-09T14:12:03.320Z,20.35
2018-06-09T14:13:03.233Z,20.30
2018-06-09T14:14:03.153Z,20.38
2018-06-09T14:15:03.097Z,20.31
2018-06-09T14:16:02.980Z,20.37
2018-06-09T14:17:02.894Z,20.42
2018-06-09T14:18:02.810Z,20.54
2018-06-09T14:19:02.723Z,20.64
2018-06-09T14:20:02.670Z,20.75
2018-06-09T14:21:02.649Z,20.76
2018-06-09T14:22:02.470Z,20.81
2018-06-09T14:23:02.385Z,21.00
2018-06-09T14:24:02.299Z,21.28
2018-06-09T14:25:02.249Z,21.27
2018-06-09T14:26:02.129Z,21.28
2018-06-09T14:27:02.046Z,21.46
2018-06-09T14:28:01.963Z,21.63
2018-06-09T14:29:01.877Z,21.58
2018-06-09T14:30:01.824Z,21.75
2018-06-09T14:31:01.710Z,21.85
2018-06-09T14:32:01.624Z,21.94
2018-06-09T14:33:01.542Z,21.96
2018-06-09T14:34:01.462Z,22.02
2018-06-09T14:35:01.497Z,22.15
2018-06-09T14:36:01.289Z,22.23
2018-06-09T14:37:01.204Z,22.45
2018-06-09T14:38:01.122Z,22.42
2018-06-09T14:39:01.038Z,22.30
2018-06-09T14:40:00.984Z,22.45
2018-06-09T14:41:00.963Z,22.52
2018-06-09T14:42:00.788Z,22.42
2018-06-09T14:43:00.705Z,22.39
2018-06-09T14:44:01.493Z,22.56
2018-06-09T14:45:00.569Z,22.57
2018-06-09T14:46:00.488Z,22.64
2018-06-09T14:47:00.369Z,22.63
2018-06-09T14:48:00.289Z,22.72
2018-06-09T14:49:00.203Z,22.67
2018-06-09T14:50:00.153Z,22.72
2018-06-09T14:51:00.037Z,22.66
2018-06-09T14:51:59.953Z,22.76
2018-06-09T14:52:59.874Z,22.59
2018-06-09T14:53:59.794Z,22.61
2018-06-09T14:54:59.829Z,22.69
2018-06-09T14:55:59.623Z,22.72
2018-06-09T14:56:59.538Z,22.78
2018-06-09T14:57:59.456Z,22.82
2018-06-09T14:58:59.371Z,22.81
2018-06-09T14:59:59.319Z,22.76
2018-06-09T15:00:59.336Z,22.78
2018-06-09T15:01:59.125Z,22.69
2018-06-09T15:02:59.040Z,22.67
2018-06-09T15:03:58.960Z,22.64
2018-06-09T15:04:58.912Z,22.57
2018-06-09T15:05:58.795Z,22.54
2018-06-09T15:06:58.711Z,22.45
2018-06-09T15:07:58.634Z,22.39
2018-06-09T15:08:58.542Z,22.45
2018-06-09T15:09:58.490Z,22.51
2018-06-09T15:10:58.380Z,22.39
2018-06-09T15:11:58.294Z,22.41
2018-06-09T15:12:58.206Z,22.46
2018-06-09T15:13:58.128Z,22.48
2018-06-09T15:14:58.077Z,22.54
2018-06-09T15:15:57.965Z,22.49
2018-06-09T15:16:57.877Z,22.64
2018-06-09T15:17:57.792Z,22.66
2018-06-09T15:18:57.710Z,22.60
2018-06-09T15:19:57.629Z,22.69
2018-06-09T15:20:57.577Z,22.70
2018-06-09T15:21:57.465Z,22.75
2018-06-09T15:22:57.375Z,22.74
2018-06-09T15:23:57.292Z,22.74